Time;durP1;ratioP1;P1;durP2;ratioP2;P2;SDS_P1;SDS_P2;PMS_P1;PMS_P2;Temp;Humidity;BMP_temperature;BMP_pressure;BME280_temperature;BME280_humidity;BME280_pressure;Samples;Min_cycle;Max_cycle;Signal;HPM_P1;HPM_P2
2023/07/20 00:01:40;;;;;;;281.27;264.25;;;14.00;82.00;;;;;;6141832;23;20159;-91
2023/07/20 00:04:06;;;;;;;271.83;255.50;;;14.00;82.00;;;;;;6162196;23;20028;-92
2023/07/20 00:06:32;;;;;;;273.35;256.70;;;14.00;82.00;;;;;;6159622;23;20485;-93
2023/07/20 00:08:58;;;;;;;271.52;254.73;;;14.00;82.20;;;;;;6132048;23;20118;-92
2023/07/20 00:11:30;;;;;;;275.88;259.17;;;14.00;82.00;;;;;;6165448;23;20111;-92
2023/07/20 00:13:57;;;;;;;275.17;258.55;;;14.00;81.90;;;;;;6137110;23;20095;-91
2023/07/20 00:16:23;;;;;;;284.77;267.70;;;14.00;82.10;;;;;;6160832;23;20021;-92
2023/07/20 00:18:54;;;;;;;270.75;253.90;;;14.00;82.20;;;;;;6157714;23;20331;-92
2023/07/20 00:21:20;;;;;;;270.90;254.48;;;14.00;82.00;;;;;;6139816;23;20024;-91
2023/07/20 00:23:49;;;;;;;272.02;255.75;;;13.90;82.20;;;;;;6123751;23;20033;-92
2023/07/20 00:26:26;;;;;;;395.50;373.00;;;13.90;82.20;;;;;;6162388;23;20017;-93
2023/07/20 00:28:57;;;;;;;273.30;257.02;;;13.90;82.20;;;;;;6145633;23;20087;-91
2023/07/20 00:31:31;;;;;;;275.77;259.30;;;13.90;82.20;;;;;;6164286;23;20024;-92
2023/07/20 00:34:02;;;;;;;258.38;243.32;;;13.90;82.10;;;;;;6147582;23;20027;-92
2023/07/20 00:36:33;;;;;;;261.67;245.82;;;13.90;82.10;;;;;;6160144;23;20016;-92
2023/07/20 00:42:22;;;;;;;263.25;247.80;;;13.80;82.00;;;;;;6169280;23;20020;-93
2023/07/20 00:45:07;;;;;;;246.93;232.75;;;13.70;82.10;;;;;;6139993;23;20053;-92
2023/07/20 00:47:36;;;;;;;269.80;253.93;;;13.70;82.10;;;;;;6134639;23;20092;-92
2023/07/20 00:50:34;;;;;;;256.13;240.90;;;13.70;82.10;;;;;;6192709;23;20020;-91
2023/07/20 00:53:10;;;;;;;259.10;243.57;;;13.60;82.10;;;;;;6161793;23;20147;-92
2023/07/20 00:55:36;;;;;;;261.52;245.98;;;13.60;82.20;;;;;;6163232;23;20022;-92
2023/07/20 00:58:20;;;;;;;358.83;338.73;;;13.50;82.30;;;;;;6143500;23;20088;-92
2023/07/20 01:00:47;;;;;;;322.60;304.65;;;13.50;82.30;;;;;;6163472;23;20021;-92
2023/07/20 01:03:16;;;;;;;236.82;222.55;;;13.50;82.30;;;;;;6161765;23;20157;-92
2023/07/20 01:06:09;;;;;;;246.15;231.63;;;13.40;82.30;;;;;;6163672;23;20096;-92
2023/07/20 01:08:59;;;;;;;310.70;293.38;;;13.40;82.40;;;;;;6140303;23;20021;-92
2023/07/20 01:11:40;;;;;;;228.55;214.77;;;13.30;82.40;;;;;;6146649;23;20020;-91
2023/07/20 01:14:14;;;;;;;;;;;13.30;82.40;;;;;;6147194;23;20016;-91
2023/07/20 01:16:45;;;;;;;118.47;111.35;;;13.20;82.70;;;;;;6132428;23;19912;-91
2023/07/20 01:19:16;;;;;;;;;;;13.10;82.50;;;;;;6136800;23;20024;-92
2023/07/20 01:21:57;;;;;;;114.77;108.00;;;13.10;82.60;;;;;;6164339;23;19916;-91
2023/07/20 01:24:50;;;;;;;164.80;155.27;;;13.10;82.40;;;;;;6134148;23;20027;-92
2023/07/20 01:28:19;;;;;;;152.38;143.57;;;13.00;82.30;;;;;;6135178;23;20021;-92
2023/07/20 01:31:30;;;;;;;132.32;124.70;;;13.00;82.30;;;;;;6127496;23;20025;-91
2023/07/20 01:34:01;;;;;;;116.45;109.55;;;12.90;82.40;;;;;;6146611;23;20347;-91
2023/07/20 01:36:30;;;;;;;;;;;12.90;82.30;;;;;;6159896;23;20024;-92
2023/07/20 01:38:57;;;;;;;57.13;53.30;;;12.80;82.30;;;;;;6161008;23;19922;-91
2023/07/20 01:41:23;;;;;;;136.00;128.40;;;12.80;82.30;;;;;;6162808;23;20028;-90
2023/07/20 01:43:49;;;;;;;149.35;141.05;;;12.70;82.10;;;;;;6161807;23;20025;-91
2023/07/20 01:46:15;;;;;;;144.30;136.18;;;12.70;82.00;;;;;;6161131;23;20021;-92
2023/07/20 01:48:44;;;;;;;204.27;192.65;;;12.60;81.90;;;;;;6131176;23;20087;-92
2023/07/20 01:51:12;;;;;;;152.95;144.43;;;12.60;81.80;;;;;;6162988;23;20099;-91
2023/07/20 01:53:40;;;;;;;192.68;182.18;;;12.50;81.80;;;;;;6148712;23;20028;-92
2023/07/20 01:56:08;;;;;;;133.90;126.32;;;12.50;81.70;;;;;;6162401;23;20046;-93
2023/07/20 01:58:41;;;;;;;162.55;152.70;;;12.50;81.70;;;;;;6116162;23;20024;-92
2023/07/20 02:01:09;;;;;;;165.10;155.52;;;12.50;81.70;;;;;;6163143;23;20406;-91
2023/07/20 02:03:35;;;;;;;120.65;113.82;;;12.50;81.70;;;;;;6117177;23;20440;-91
2023/07/20 02:06:01;;;;;;;118.38;111.68;;;12.30;81.70;;;;;;6158296;23;20019;-90
2023/07/20 02:08:34;;;;;;;157.02;148.10;;;12.30;81.70;;;;;;6153934;23;20027;-91
2023/07/20 02:11:04;;;;;;;129.55;121.78;;;12.30;81.70;;;;;;6138292;23;20099;-90
2023/07/20 02:13:30;;;;;;;137.10;128.98;;;12.20;81.80;;;;;;6161832;23;20031;-90
2023/07/20 02:15:56;;;;;;;108.68;102.43;;;12.20;81.90;;;;;;6162974;23;20017;-92
2023/07/20 02:18:24;;;;;;;119.65;112.60;;;12.10;81.90;;;;;;6128637;23;20028;-90
2023/07/20 02:20:54;;;;;;;97.32;91.60;;;12.10;82.00;;;;;;6163221;23;20480;-92
2023/07/20 02:23:25;;;;;;;101.30;95.22;;;12.10;82.00;;;;;;6160258;23;20024;-90
2023/07/20 02:25:51;;;;;;;112.53;105.72;;;12.00;82.00;;;;;;6139921;23;20383;-90
2023/07/20 02:28:17;;;;;;;103.40;97.47;;;12.00;82.10;;;;;;6153135;23;20036;-92
2023/07/20 02:31:06;;;;;;;102.78;97.05;;;12.00;82.00;;;;;;6138890;23;20024;-91
2023/07/20 02:33:41;;;;;;;56.80;53.28;;;11.90;82.20;;;;;;6146374;23;20159;-90
2023/07/20 02:36:07;;;;;;;69.18;65.07;;;11.90;82.00;;;;;;6162397;23;20087;-92
2023/07/20 02:38:32;;;;;;;77.00;72.32;;;11.90;82.10;;;;;;6156307;23;20048;-90
2023/07/20 02:40:58;;;;;;;65.10;61.17;;;11.90;82.20;;;;;;6163479;23;20020;-91
2023/07/20 02:43:24;;;;;;;78.70;73.90;;;11.80;82.10;;;;;;6132800;23;20024;-91
2023/07/20 02:45:55;;;;;;;61.58;57.67;;;11.80;82.10;;;;;;6163407;23;20019;-90
2023/07/20 02:48:23;;;;;;;;;;;11.70;82.10;;;;;;6153921;23;20025;-91
2023/07/20 02:50:57;;;;;;;14.77;13.57;;;11.70;82.40;;;;;;6163329;23;19916;-91
2023/07/20 02:53:23;;;;;;;27.00;25.05;;;11.70;82.30;;;;;;6160867;23;20399;-91
2023/07/20 02:55:48;;;;;;;46.28;43.05;;;11.70;82.20;;;;;;6163644;23;20024;-91
2023/07/20 02:58:14;;;;;;;57.40;53.85;;;11.60;82.30;;;;;;6153257;23;20414;-91
2023/07/20 03:00:43;;;;;;;47.13;44.03;;;11.60;82.20;;;;;;6162771;23;20016;-91
2023/07/20 03:03:09;;;;;;;38.78;36.17;;;11.60;82.20;;;;;;6148072;23;20019;-90
2023/07/20 03:05:39;;;;;;;35.58;33.13;;;11.50;82.20;;;;;;6162638;23;20012;-91
2023/07/20 03:08:06;;;;;;;48.22;45.35;;;11.50;82.10;;;;;;6131038;23;20024;-89
2023/07/20 03:10:43;;;;;;;46.17;42.83;;;11.50;82.20;;;;;;6141730;23;20017;-91
2023/07/20 03:13:08;;;;;;;27.27;25.30;;;11.50;82.20;;;;;;6147861;23;20020;-90
2023/07/20 03:15:37;;;;;;;25.08;23.27;;;11.50;82.20;;;;;;6164592;23;20023;-91
2023/07/20 03:18:04;;;;;;;31.88;29.35;;;11.50;82.10;;;;;;6153621;23;20021;-90
2023/07/20 03:20:34;;;;;;;31.38;29.05;;;11.50;82.10;;;;;;6163485;23;20028;-91
2023/07/20 03:23:00;;;;;;;28.98;27.02;;;11.50;82.10;;;;;;6137234;23;20478;-91
2023/07/20 03:25:26;;;;;;;33.45;31.17;;;11.50;82.00;;;;;;6114748;23;20020;-90
2023/07/20 03:27:51;;;;;;;20.90;19.35;;;11.50;81.90;;;;;;6139974;23;20028;-91
2023/07/20 03:30:17;;;;;;;21.27;19.50;;;11.50;81.90;;;;;;6163182;23;20020;-91
2023/07/20 03:32:43;;;;;;;18.08;16.52;;;11.50;81.90;;;;;;6161261;23;20023;-91
2023/07/20 03:35:12;;;;;;;26.38;24.35;;;11.50;81.80;;;;;;6115176;23;20012;-89
2023/07/20 03:37:40;;;;;;;22.15;20.40;;;11.50;81.80;;;;;;6131815;23;20028;-90
2023/07/20 03:40:07;;;;;;;27.27;25.35;;;11.40;81.80;;;;;;6164566;23;20021;-91
2023/07/20 03:42:36;;;;;;;15.60;14.55;;;11.40;81.90;;;;;;6149960;23;20441;-92
2023/07/20 03:45:04;;;;;;;29.27;26.98;;;11.40;81.80;;;;;;6140162;23;20016;-90
2023/07/20 03:47:32;;;;;;;23.60;21.85;;;11.40;81.90;;;;;;6153288;23;20028;-90
2023/07/20 03:49:58;;;;;;;23.90;22.30;;;11.40;81.80;;;;;;6140693;23;20511;-91
2023/07/20 03:52:24;;;;;;;33.80;31.27;;;11.30;81.80;;;;;;6137347;23;20048;-91
2023/07/20 03:54:52;;;;;;;27.40;25.45;;;11.30;81.80;;;;;;6140342;23;20043;-91
2023/07/20 03:57:18;;;;;;;17.83;16.63;;;11.30;81.70;;;;;;6140739;23;20055;-90
2023/07/20 03:59:48;;;;;;;22.85;21.25;;;11.30;81.60;;;;;;6163204;23;20020;-90
2023/07/20 04:02:14;;;;;;;23.08;21.40;;;11.30;81.70;;;;;;6147935;23;20016;-91
2023/07/20 04:04:40;;;;;;;20.80;19.17;;;11.30;81.60;;;;;;6165123;23;20147;-90
2023/07/20 04:07:07;;;;;;;13.20;12.07;;;11.30;81.60;;;;;;6153976;23;20609;-90
2023/07/20 04:09:33;;;;;;;16.52;15.40;;;11.30;81.60;;;;;;6139061;23;20017;-91
2023/07/20 04:12:01;;;;;;;17.83;16.63;;;11.20;81.60;;;;;;6164479;23;20025;-91
2023/07/20 04:14:27;;;;;;;26.83;24.67;;;11.20;81.60;;;;;;6137533;23;20082;-90
2023/07/20 04:16:53;;;;;;;13.80;12.75;;;11.30;81.50;;;;;;6131575;23;20021;-91
2023/07/20 04:19:23;;;;;;;20.45;18.92;;;11.30;81.60;;;;;;6160404;23;20029;-91
2023/07/20 04:21:49;;;;;;;19.83;18.35;;;11.30;81.40;;;;;;6140373;23;20021;-90
2023/07/20 04:24:16;;;;;;;16.65;15.30;;;11.30;81.50;;;;;;6119612;23;20527;-91
2023/07/20 04:26:45;;;;;;;19.42;17.88;;;11.30;81.60;;;;;;6157704;23;20069;-92
2023/07/20 04:29:14;;;;;;;15.38;14.18;;;11.30;81.60;;;;;;6146791;23;20367;-89
2023/07/20 04:31:43;;;;;;;22.15;20.70;;;11.30;81.70;;;;;;6139210;23;20020;-92
2023/07/20 04:34:09;;;;;;;25.95;24.23;;;11.30;81.70;;;;;;6161482;23;20024;-91
2023/07/20 04:36:40;;;;;;;14.77;13.02;;;11.40;81.80;;;;;;6133765;23;20012;-92
2023/07/20 04:39:08;;;;;;;21.30;19.83;;;11.50;81.90;;;;;;6162911;23;20016;-91
2023/07/20 04:41:34;;;;;;;28.05;26.20;;;11.50;82.00;;;;;;6163491;23;20090;-90
2023/07/20 04:44:03;;;;;;;29.77;27.85;;;11.60;81.80;;;;;;6138372;23;20075;-90
2023/07/20 04:46:31;;;;;;;40.95;38.42;;;11.70;81.70;;;;;;6158865;23;20123;-91
2023/07/20 04:48:57;;;;;;;57.55;54.15;;;11.80;81.70;;;;;;6111668;23;20205;-89
2023/07/20 04:51:23;;;;;;;29.55;27.42;;;11.90;81.60;;;;;;6135466;23;20020;-91
2023/07/20 04:53:52;;;;;;;48.10;45.15;;;12.00;81.60;;;;;;6130037;23;20079;-91
2023/07/20 04:56:23;;;;;;;49.97;47.00;;;12.10;81.50;;;;;;6158355;23;20016;-91
2023/07/20 04:58:49;;;;;;;40.20;37.80;;;12.10;81.50;;;;;;6133616;23;20021;-89
2023/07/20 05:01:15;;;;;;;67.63;63.63;;;12.30;81.60;;;;;;6163387;23;20082;-90
2023/07/20 05:03:43;;;;;;;69.95;65.88;;;12.40;81.50;;;;;;6112347;23;20399;-91
2023/07/20 05:06:12;;;;;;;73.13;69.00;;;12.50;81.40;;;;;;6164212;23;20016;-93
2023/07/20 05:08:41;;;;;;;69.85;66.00;;;12.50;81.40;;;;;;6131888;23;20056;-90
2023/07/20 05:11:07;;;;;;;93.18;88.03;;;12.60;81.30;;;;;;6164040;23;20016;-91
2023/07/20 05:13:33;;;;;;;96.85;91.55;;;12.70;81.20;;;;;;6137262;23;20032;-90
2023/07/20 05:15:59;;;;;;;109.45;103.50;;;12.80;81.10;;;;;;6163519;23;20044;-91
2023/07/20 05:18:25;;;;;;;106.28;100.50;;;12.80;81.10;;;;;;6147476;23;20432;-91
2023/07/20 05:20:51;;;;;;;139.40;131.43;;;12.90;81.00;;;;;;6159486;23;20017;-92
2023/07/20 05:23:23;;;;;;;150.77;142.05;;;13.10;81.20;;;;;;6156738;23;20032;-91
2023/07/20 05:26:11;;;;;;;159.63;150.80;;;13.20;81.00;;;;;;6158836;23;20439;-92
2023/07/20 05:28:42;;;;;;;223.75;210.90;;;13.30;81.10;;;;;;6120517;23;20573;-92
2023/07/20 05:31:10;;;;;;;206.48;195.48;;;13.50;81.00;;;;;;6159920;23;20021;-92
2023/07/20 05:33:39;;;;;;;222.63;210.60;;;13.60;80.80;;;;;;6156324;23;20055;-91
2023/07/20 05:36:07;;;;;;;206.70;195.60;;;13.70;80.80;;;;;;6158796;23;20040;-92
2023/07/20 05:38:45;;;;;;;183.02;173.23;;;13.80;80.60;;;;;;6132868;23;20033;-92
2023/07/20 05:41:16;;;;;;;243.63;229.93;;;13.90;80.60;;;;;;6159969;23;20020;-91
2023/07/20 05:43:43;;;;;;;228.75;215.98;;;14.00;80.30;;;;;;6156591;23;20087;-91
2023/07/20 05:46:09;;;;;;;246.63;232.65;;;14.00;80.00;;;;;;6133536;23;20013;-92
2023/07/20 05:48:44;;;;;;;198.18;187.40;;;14.10;80.00;;;;;;6150654;23;20052;-91
2023/07/20 05:51:13;;;;;;;227.02;214.50;;;14.20;79.60;;;;;;6109602;23;20025;-92
2023/07/20 05:53:44;;;;;;;204.07;192.82;;;14.20;79.70;;;;;;6146490;23;20024;-92
2023/07/20 05:56:10;;;;;;;202.30;191.25;;;14.30;79.50;;;;;;6158045;23;20017;-91
2023/07/20 05:58:40;;;;;;;215.98;204.32;;;14.40;79.40;;;;;;6099820;23;20021;-92
2023/07/20 06:01:08;;;;;;;213.55;201.73;;;14.50;79.00;;;;;;6158282;23;20024;-91
2023/07/20 06:03:37;;;;;;;199.32;188.57;;;14.60;78.60;;;;;;6132995;23;20023;-92
2023/07/20 06:08:52;;;;;;;197.00;186.48;;;14.70;78.40;;;;;;6156440;23;20383;-91
2023/07/20 06:11:18;;;;;;;193.57;183.38;;;14.80;77.50;;;;;;6159280;23;20017;-90
2023/07/20 06:13:44;;;;;;;199.25;188.63;;;14.90;77.20;;;;;;6107580;23;20032;-91
2023/07/20 06:16:14;;;;;;;194.70;184.18;;;14.90;76.80;;;;;;6133077;23;20049;-92
2023/07/20 06:18:45;;;;;;;178.13;168.83;;;15.00;77.00;;;;;;6115498;23;20020;-91
2023/07/20 06:21:12;;;;;;;179.48;169.77;;;15.20;76.00;;;;;;6159024;23;20039;-92
2023/07/20 06:23:38;;;;;;;171.77;162.60;;;15.30;75.80;;;;;;6134807;23;20532;-86
2023/07/20 06:26:09;;;;;;;186.95;177.05;;;15.30;75.40;;;;;;6157965;23;20024;-90
2023/07/20 06:28:36;;;;;;;169.82;161.02;;;15.40;75.70;;;;;;6126357;23;20025;-87
2023/07/20 06:31:03;;;;;;;184.40;174.32;;;15.50;75.40;;;;;;6157739;23;20017;-90
2023/07/20 06:33:29;;;;;;;154.95;146.35;;;15.50;75.30;;;;;;6156033;23;20039;-90
2023/07/20 06:35:56;;;;;;;212.43;200.43;;;15.60;74.60;;;;;;6156916;23;20380;-89
2023/07/20 06:38:23;;;;;;;194.48;183.30;;;15.60;74.10;;;;;;6126502;23;20025;-88
2023/07/20 06:40:52;;;;;;;168.43;159.30;;;15.60;73.90;;;;;;6156693;23;20063;-89
2023/07/20 06:43:24;;;;;;;209.00;197.13;;;15.60;74.30;;;;;;6146025;23;20020;-88
2023/07/20 06:45:59;;;;;;;207.05;195.60;;;15.60;74.10;;;;;;6158020;23;20021;-92
2023/07/20 06:48:24;;;;;;;177.15;167.70;;;15.80;74.60;;;;;;6135442;23;20340;-90
2023/07/20 06:50:50;;;;;;;185.52;175.68;;;16.00;74.00;;;;;;6157823;23;20017;-91
2023/07/20 06:53:26;;;;;;;343.77;323.02;;;16.10;74.20;;;;;;6146613;23;20020;-91
2023/07/20 06:55:52;;;;;;;328.17;308.80;;;16.20;73.10;;;;;;6182547;23;20020;-90
2023/07/20 06:58:22;;;;;;;240.27;226.32;;;16.20;72.30;;;;;;6111843;23;20025;-90
2023/07/20 07:00:48;;;;;;;212.73;200.68;;;16.20;72.70;;;;;;6157187;23;20021;-88
2023/07/20 07:03:14;;;;;;;296.67;279.50;;;16.40;72.20;;;;;;6109290;23;20083;-89
2023/07/20 07:05:40;;;;;;;309.30;291.35;;;16.40;71.60;;;;;;6157878;23;20017;-89
2023/07/20 07:08:09;;;;;;;267.75;251.85;;;16.40;71.70;;;;;;6146949;23;20021;-92
2023/07/20 07:11:05;;;;;;;;;;;;;;;;;;;;;
2023/07/20 07:14:29;;;;;;;245.90;231.20;;;16.70;70.90;;;;;;6179653;23;20107;-91
2023/07/20 07:21:43;;;;;;;307.27;289.50;;;16.80;70.70;;;;;;6008720;23;20031;-93
2023/07/20 07:24:14;;;;;;;248.80;234.05;;;16.90;70.00;;;;;;6076889;23;20049;-90
2023/07/20 07:27:24;;;;;;;257.77;242.02;;;16.90;70.50;;;;;;6057774;23;20022;-91
2023/07/20 07:30:16;;;;;;;244.35;230.02;;;16.90;70.30;;;;;;6124942;23;20026;-93
2023/07/20 07:32:42;;;;;;;245.90;231.27;;;16.90;68.90;;;;;;6089079;23;20171;-90
2023/07/20 07:35:33;;;;;;;262.45;247.05;;;16.90;69.20;;;;;;6112293;23;20017;-95
2023/07/20 07:38:12;;;;;;;;;;;;;;;;;;;;;
2023/07/20 07:41:16;;;;;;;250.77;235.98;;;17.00;70.00;;;;;;6138131;23;20026;-94
2023/07/20 07:43:48;;;;;;;254.15;238.85;;;17.00;69.70;;;;;;6113253;23;20127;-92
2023/07/20 07:46:54;;;;;;;214.63;202.18;;;17.20;69.50;;;;;;6113841;23;20017;-92
2023/07/20 07:49:20;;;;;;;238.95;223.55;;;17.20;68.70;;;;;;6032876;23;20356;-89
2023/07/20 07:52:04;;;;;;;265.90;250.13;;;17.30;68.40;;;;;;6147075;23;20021;-93
2023/07/20 07:54:51;;;;;;;264.52;248.82;;;17.30;68.10;;;;;;6081240;23;20475;-93
2023/07/20 07:57:26;;;;;;;254.20;239.00;;;17.30;67.70;;;;;;6092647;23;20032;-93
2023/07/20 07:59:52;;;;;;;316.35;296.17;;;17.20;68.40;;;;;;6091854;23;20026;-88
2023/07/20 08:02:49;;;;;;;211.18;199.23;;;17.20;68.10;;;;;;6086812;23;20038;-92
2023/07/20 08:13:36;;;;;;;;;;;;;;;;;;;;;
2023/07/20 08:16:13;;;;;;;215.32;203.45;;;17.30;66.20;;;;;;5908554;24;20184;-92
2023/07/20 08:18:45;;;;;;;220.45;207.80;;;17.30;66.00;;;;;;5834065;24;20029;-91
2023/07/20 08:21:46;;;;;;;245.13;231.20;;;17.30;66.30;;;;;;5871463;24;20177;-95
2023/07/20 08:24:21;;;;;;;221.13;208.60;;;17.30;66.10;;;;;;5783905;24;20066;-92
2023/07/20 08:27:03;;;;;;;;;;;;;;;;;;;;;
2023/07/20 08:29:37;;;;;;;224.70;212.07;;;17.40;66.60;;;;;;6140901;23;20036;-93
2023/07/20 08:32:14;;;;;;;;;;;;;;;;;;;;;
2023/07/20 08:37:51;;;;;;;;;;;;;;;;;;;;;
2023/07/20 08:41:01;;;;;;;;;;;;;;;;;;;;;
2023/07/20 08:43:47;;;;;;;232.93;219.73;;;17.50;65.00;;;;;;6095190;23;20022;-92
2023/07/20 08:46:17;;;;;;;203.52;192.57;;;17.50;64.90;;;;;;6063024;23;20050;-93
2023/07/20 08:49:22;;;;;;;229.68;216.60;;;17.50;64.60;;;;;;6108844;23;20021;-94
2023/07/20 08:51:48;;;;;;;234.77;221.60;;;17.50;63.70;;;;;;6111282;23;20097;-91
2023/07/20 08:54:23;;;;;;;217.93;205.52;;;17.60;64.40;;;;;;6085129;23;20029;-92
2023/07/20 08:56:49;;;;;;;218.98;206.35;;;17.50;63.20;;;;;;6081314;23;20014;-91
2023/07/20 08:59:29;;;;;;;;;;;;;;;;;;;;;
2023/07/20 09:02:08;;;;;;;229.63;216.35;;;17.50;64.10;;;;;;6133462;23;20092;-92
2023/07/20 09:04:34;;;;;;;225.32;212.73;;;17.50;64.40;;;;;;6092650;23;20485;-92
2023/07/20 09:07:03;;;;;;;236.70;223.63;;;17.60;64.50;;;;;;6053807;23;20018;-92
2023/07/20 09:09:29;;;;;;;243.43;229.80;;;17.70;64.30;;;;;;6133293;23;20029;-91
2023/07/20 09:15:25;;;;;;;226.93;214.25;;;17.80;63.20;;;;;;6082468;23;20330;-92
2023/07/20 09:17:54;;;;;;;222.32;209.80;;;17.90;63.90;;;;;;6109242;23;20471;-92
2023/07/20 09:20:22;;;;;;;268.73;252.98;;;17.90;63.30;;;;;;6111174;23;20356;-92
2023/07/20 09:23:11;;;;;;;231.65;218.35;;;18.00;63.70;;;;;;6118529;23;20028;-92
2023/07/20 09:25:37;;;;;;;262.70;247.57;;;18.00;63.20;;;;;;6147122;23;20025;-92
2023/07/20 09:28:04;;;;;;;259.23;244.23;;;18.00;63.90;;;;;;6103401;23;20017;-90
2023/07/20 09:30:30;;;;;;;278.30;262.30;;;18.00;63.70;;;;;;6163687;23;20028;-91
2023/07/20 09:33:05;;;;;;;306.10;286.33;;;17.80;63.70;;;;;;6126841;23;20380;-92
2023/07/20 09:35:35;;;;;;;273.75;257.40;;;17.80;63.90;;;;;;6146930;23;20267;-91
2023/07/20 09:38:14;;;;;;;279.75;262.98;;;17.70;64.00;;;;;;6116866;23;20021;-91
2023/07/20 09:44:20;;;;;;;241.45;227.75;;;17.70;64.00;;;;;;6165193;23;20034;-90
2023/07/20 09:46:50;;;;;;;241.93;228.57;;;17.80;63.30;;;;;;6157578;23;20709;-92
2023/07/20 09:49:27;;;;;;;233.48;219.95;;;17.90;63.90;;;;;;6142886;23;20486;-95
2023/07/20 09:52:26;;;;;;;265.65;250.15;;;18.00;63.30;;;;;;6150059;23;20025;-93
2023/07/20 09:55:14;;;;;;;238.38;224.95;;;18.10;63.70;;;;;;6128936;23;20067;-95
2023/07/20 09:57:56;;;;;;;266.40;250.82;;;18.00;63.00;;;;;;6119834;23;20025;-92
2023/07/20 10:00:55;;;;;;;266.27;250.35;;;17.80;63.30;;;;;;6150765;23;20751;-90
2023/07/20 10:04:01;;;;;;;;;;;;;;;;;;;;;
2023/07/20 10:07:42;;;;;;;246.57;232.75;;;17.70;62.30;;;;;;6084797;23;20025;-91
2023/07/20 10:11:07;;;;;;;247.52;233.18;;;17.80;62.20;;;;;;6121516;23;20036;-96
2023/07/20 10:14:05;;;;;;;;;;;;;;;;;;;;;
2023/07/20 10:20:41;;;;;;;;;;;18.10;63.30;;;;;;6121232;23;20085;-95
2023/07/20 10:27:06;;;;;;;217.50;205.57;;;18.10;63.40;;;;;;6173718;23;20048;-95
2023/07/20 10:33:41;;;;;;;209.43;197.75;;;18.00;63.60;;;;;;6155419;23;20028;-94
2023/07/20 10:36:58;;;;;;;259.85;245.13;;;18.10;63.20;;;;;;6172319;23;20075;-94
2023/07/20 10:43:36;;;;;;;229.63;216.90;;;18.30;62.60;;;;;;6177749;23;20474;-94
2023/07/20 10:50:12;;;;;;;236.55;222.70;;;18.30;63.00;;;;;;6111733;23;20296;-94
2023/07/20 11:02:33;;;;;;;262.27;247.38;;;18.60;62.80;;;;;;6124685;23;20030;-95
2023/07/20 11:08:59;;;;;;;234.43;221.48;;;18.60;62.70;;;;;;5954680;23;20041;-94
2023/07/20 11:12:13;;;;;;;247.70;233.85;;;18.60;62.40;;;;;;5976658;23;20038;-93
2023/07/20 11:14:46;;;;;;;235.02;221.40;;;18.60;61.60;;;;;;5886433;23;20031;-95
2023/07/20 11:18:17;;;;;;;280.65;263.50;;;18.50;62.50;;;;;;5929484;23;20063;-95
2023/07/20 11:21:19;;;;;;;225.38;212.65;;;18.50;62.20;;;;;;5968977;23;20020;-94
2023/07/20 11:23:55;;;;;;;217.43;205.23;;;18.50;62.50;;;;;;5948574;23;20365;-94
2023/07/20 11:27:19;;;;;;;;;;;;;;;;;;;;;
2023/07/20 11:30:28;;;;;;;;;;;;;;;;;;;;;
2023/07/20 11:33:26;;;;;;;296.95;276.92;;;18.50;62.30;;;;;;6127979;23;20006;-91
2023/07/20 11:36:09;;;;;;;;;;;;;;;;;;;;;
2023/07/20 11:39:21;;;;;;;310.73;291.40;;;18.50;62.10;;;;;;6139522;23;20045;-93
2023/07/20 11:42:14;;;;;;;288.67;271.85;;;18.60;62.20;;;;;;6084561;23;20610;-92
2023/07/20 11:44:55;;;;;;;299.95;281.60;;;18.70;62.20;;;;;;6082551;23;20026;-93
2023/07/20 11:48:16;;;;;;;321.80;301.23;;;18.80;62.10;;;;;;6077237;23;20041;-91
2023/07/20 11:50:53;;;;;;;291.10;273.27;;;18.90;60.10;;;;;;6115095;23;20021;-94
2023/07/20 11:54:19;;;;;;;;;;;;;;;;;;;;;
2023/07/20 11:57:05;;;;;;;;;;;;;;;;;;;;;
2023/07/20 12:00:17;;;;;;;305.27;285.63;;;19.00;61.70;;;;;;6040880;23;20089;-92
2023/07/20 12:03:16;;;;;;;308.13;288.80;;;19.00;60.80;;;;;;6070894;23;20021;-93
2023/07/20 12:05:57;;;;;;;;;;;;;;;;;;;;;
2023/07/20 12:08:40;;;;;;;323.08;301.88;;;18.90;61.70;;;;;;6127849;23;20803;-92
2023/07/20 12:11:12;;;;;;;351.60;326.75;;;18.80;61.80;;;;;;6119582;23;20024;-91
2023/07/20 12:13:54;;;;;;;318.30;297.52;;;18.80;61.40;;;;;;6115978;23;20030;-94
2023/07/20 12:16:46;;;;;;;326.70;305.60;;;18.70;61.90;;;;;;6095350;23;20333;-94
2023/07/20 12:19:13;;;;;;;328.55;306.58;;;18.70;61.30;;;;;;6104979;23;20484;-93
2023/07/20 12:22:40;;;;;;;358.50;333.35;;;18.60;61.40;;;;;;6120010;23;20030;-94
2023/07/20 12:29:21;;;;;;;314.85;295.08;;;18.30;60.70;;;;;;6031913;23;20019;-93
2023/07/20 12:44:04;;;;;;;;;;;;;;;;;;;;;
2023/07/20 13:16:19;;;;;;;257.33;242.57;;;18.10;61.40;;;;;;4488117;27;15128195;-91
2023/07/20 13:19:21;;;;;;;;;;;;;;;;;;;;;
2023/07/20 13:55:40;;;;;;;;;;;;;;;;;;;;;
2023/07/20 13:59:17;;;;;;;430.50;396.63;;;18.30;62.90;;;;;;6187190;22;20051;-92
2023/07/20 14:13:43;;;;;;;307.75;288.58;;;18.30;63.10;;;;;;5974599;23;20073;-96
2023/07/20 14:32:32;;;;;;;;;;;;;;;;;;;;;
2023/07/20 14:47:36;;;;;;;;;;;;;;;;;;;;;
2023/07/20 15:02:36;;;;;;;;;;;;;;;;;;;;;
2023/07/20 15:29:00;;;;;;;341.90;319.58;;;19.20;61.80;;;;;;4814747;29;20537;-95
2023/07/20 15:31:41;;;;;;;304.75;284.92;;;19.00;61.80;;;;;;4833428;29;20734;-94
2023/07/20 15:34:52;;;;;;;;;;;;;;;;;;;;;
2023/07/20 15:48:22;;;;;;;301.50;282.30;;;19.40;61.90;;;;;;4777814;30;20075;-96
2023/07/20 15:59:00;;;;;;;329.38;307.00;;;20.00;61.40;;;;;;4810601;29;20130;-94
2023/07/20 16:29:25;;;;;;;;;;;;;;;;;;;;;
2023/07/20 16:38:33;;;;;;;384.70;353.85;;;20.30;60.20;;;;;;6277209;22;20027;-96
2023/07/20 16:44:45;;;;;;;315.60;294.95;;;20.50;59.20;;;;;;6009581;23;20054;-94
2023/07/20 16:52:06;;;;;;;;;;;;;;;;;;;;;
2023/07/20 16:55:40;;;;;;;;;;;;;;;;;;;;;
2023/07/20 17:06:48;;;;;;;;;;;;;;;;;;;;;
2023/07/20 17:10:21;;;;;;;319.27;297.33;;;19.60;60.80;;;;;;5806404;24;20030;-94
2023/07/20 17:36:42;;;;;;;240.90;226.63;;;19.60;61.20;;;;;;6369690;22;20298;-94
2023/07/20 17:39:28;;;;;;;272.48;255.48;;;19.20;61.40;;;;;;5620383;22;15081580;-93
2023/07/20 17:41:57;;;;;;;278.55;260.90;;;19.10;61.60;;;;;;6307846;22;20121;-93
2023/07/20 17:44:23;;;;;;;290.58;271.80;;;18.90;61.80;;;;;;6245009;22;20023;-90
2023/07/20 17:47:36;;;;;;;;;;;;;;;;;;;;;
2023/07/20 17:58:24;;;;;;;;;;;;;;;;;;;;;
2023/07/20 18:02:40;;;;;;;;;;;;;;;;;;;;;
2023/07/20 18:20:32;;;;;;;;;;;;;;;;;;;;;
2023/07/20 19:08:51;;;;;;;;;;;;;;;;;;;;;
2023/07/20 19:15:56;;;;;;;;;;;;;;;;;;;;;
2023/07/20 20:29:59;;;;;;;;;;;;;;;;;;;;;
2023/07/20 20:32:44;;;;;;;;;;;;;;;;;;;;;
2023/07/20 20:35:43;;;;;;;;;;;;;;;;;;;;;
2023/07/20 20:38:46;;;;;;;271.55;256.15;;;15.00;70.90;;;;;;6194377;23;20052;-92
2023/07/20 20:41:25;;;;;;;255.10;240.73;;;14.90;71.00;;;;;;6179692;23;20026;-92
2023/07/20 20:44:50;;;;;;;;;;;;;;;;;;;;;
2023/07/20 20:51:36;;;;;;;225.27;212.60;;;14.60;71.20;;;;;;6141776;23;20456;-91
2023/07/20 20:54:50;;;;;;;;;;;;;;;;;;;;;
2023/07/20 20:57:07;;;;;;;205.27;194.07;;;14.20;72.00;;;;;;6102360;23;20839;-91
2023/07/20 22:01:34;;;;;;;;;;;;;;;;;;;;;
2023/07/20 22:04:22;;;;;;;124.10;117.50;;;13.60;72.80;;;;;;6089083;23;20085;-92
2023/07/20 22:07:06;;;;;;;;;;;;;;;;;;;;;
2023/07/20 22:09:55;;;;;;;;;;;13.50;72.50;;;;;;6073291;23;20141;-92
2023/07/20 22:16:20;;;;;;;120.78;114.18;;;13.40;72.80;;;;;;6193838;23;20081;-92
2023/07/20 22:22:13;;;;;;;137.32;129.98;;;13.30;72.90;;;;;;6186909;23;20020;-92
2023/07/20 22:24:47;;;;;;;133.75;126.35;;;13.30;73.40;;;;;;6120577;23;20020;-92
2023/07/20 22:28:33;;;;;;;151.35;143.02;;;13.30;73.50;;;;;;6145431;23;20435;-92
2023/07/20 22:30:47;;;;;;;107.72;101.75;;;13.30;73.50;;;;;;6166925;23;20016;-92
2023/07/20 22:33:48;;;;;;;161.57;152.70;;;13.10;73.30;;;;;;6109284;23;20387;-91
2023/07/20 22:36:20;;;;;;;141.02;133.50;;;13.10;73.50;;;;;;6153636;23;20063;-93
2023/07/20 22:39:05;;;;;;;161.63;152.73;;;13.10;73.70;;;;;;6158458;23;20017;-92
2023/07/20 22:42:47;;;;;;;;;;;;;;;;;;;;;
2023/07/20 22:44:43;;;;;;;116.15;109.75;;;13.10;74.60;;;;;;6079727;23;20104;-92
2023/07/20 22:47:33;;;;;;;127.07;120.25;;;13.10;74.20;;;;;;6100926;23;20048;-91
2023/07/20 22:50:20;;;;;;;113.45;107.00;;;13.10;74.60;;;;;;6122101;23;20013;-90